sensor_id;sensor_type;location;lat;lon;timestamp;P1;durP1;ratioP1;P2;durP2;ratioP2
16393;SDS011;8306;51.128;4.476;2024-03-08T00:00:29;36.80;;;26.20;;
16393;SDS011;8306;51.128;4.476;2024-03-08T00:02:55;33.63;;;24.47;;
16393;SDS011;8306;51.128;4.476;2024-03-08T00:05:22;39.57;;;25.13;;
16393;SDS011;8306;51.128;4.476;2024-03-08T00:07:48;37.53;;;25.20;;
16393;SDS011;8306;51.128;4.476;2024-03-08T00:10:15;31.60;;;24.77;;
16393;SDS011;8306;51.128;4.476;2024-03-08T00:12:42;35.60;;;25.47;;
16393;SDS011;8306;51.128;4.476;2024-03-08T00:15:08;38.63;;;24.73;;
16393;SDS011;8306;51.128;4.476;2024-03-08T00:17:34;31.07;;;23.67;;
16393;SDS011;8306;51.128;4.476;2024-03-08T00:20:01;35.63;;;25.63;;
16393;SDS011;8306;51.128;4.476;2024-03-08T00:22:27;39.23;;;25.13;;
16393;SDS011;8306;51.128;4.476;2024-03-08T00:24:54;32.00;;;24.20;;
16393;SDS011;8306;51.128;4.476;2024-03-08T00:27:20;36.50;;;25.13;;
16393;SDS011;8306;51.128;4.476;2024-03-08T00:29:47;31.00;;;23.53;;
16393;SDS011;8306;51.128;4.476;2024-03-08T00:32:13;30.73;;;24.20;;
16393;SDS011;8306;51.128;4.476;2024-03-08T00:34:40;35.80;;;24.67;;
16393;SDS011;8306;51.128;4.476;2024-03-08T00:37:06;33.20;;;23.53;;
16393;SDS011;8306;51.128;4.476;2024-03-08T00:39:33;35.23;;;24.50;;
16393;SDS011;8306;51.128;4.476;2024-03-08T00:41:59;30.80;;;23.27;;
16393;SDS011;8306;51.128;4.476;2024-03-08T00:44:26;34.43;;;21.67;;
16393;SDS011;8306;51.128;4.476;2024-03-08T00:46:52;25.70;;;23.00;;
16393;SDS011;8306;51.128;4.476;2024-03-08T00:49:19;31.60;;;22.57;;
16393;SDS011;8306;51.128;4.476;2024-03-08T00:51:45;34.03;;;22.67;;
16393;SDS011;8306;51.128;4.476;2024-03-08T00:54:12;28.50;;;22.13;;
16393;SDS011;8306;51.128;4.476;2024-03-08T00:56:38;25.50;;;21.17;;
16393;SDS011;8306;51.128;4.476;2024-03-08T00:59:06;26.70;;;22.00;;
16393;SDS011;8306;51.128;4.476;2024-03-08T01:01:31;33.07;;;22.93;;
16393;SDS011;8306;51.128;4.476;2024-03-08T01:03:58;23.97;;;21.53;;
16393;SDS011;8306;51.128;4.476;2024-03-08T01:06:24;23.97;;;20.67;;
16393;SDS011;8306;51.128;4.476;2024-03-08T01:08:51;25.83;;;21.23;;
16393;SDS011;8306;51.128;4.476;2024-03-08T01:11:17;23.47;;;20.93;;
16393;SDS011;8306;51.128;4.476;2024-03-08T01:13:44;23.43;;;20.17;;
16393;SDS011;8306;51.128;4.476;2024-03-08T01:16:10;22.97;;;20.53;;
16393;SDS011;8306;51.128;4.476;2024-03-08T01:18:36;24.23;;;21.67;;
16393;SDS011;8306;51.128;4.476;2024-03-08T01:21:03;25.83;;;20.50;;
16393;SDS011;8306;51.128;4.476;2024-03-08T01:23:29;23.13;;;20.80;;
16393;SDS011;8306;51.128;4.476;2024-03-08T01:25:56;24.30;;;21.70;;
16393;SDS011;8306;51.128;4.476;2024-03-08T01:28:23;22.40;;;20.07;;
16393;SDS011;8306;51.128;4.476;2024-03-08T01:30:49;22.37;;;20.27;;
16393;SDS011;8306;51.128;4.476;2024-03-08T01:33:15;22.17;;;20.03;;
16393;SDS011;8306;51.128;4.476;2024-03-08T01:35:42;22.87;;;20.67;;
16393;SDS011;8306;51.128;4.476;2024-03-08T01:38:08;22.33;;;19.87;;
16393;SDS011;8306;51.128;4.476;2024-03-08T01:40:35;21.73;;;19.47;;
16393;SDS011;8306;51.128;4.476;2024-03-08T01:43:20;23.03;;;20.37;;
16393;SDS011;8306;51.128;4.476;2024-03-08T01:45:46;21.57;;;19.30;;
16393;SDS011;8306;51.128;4.476;2024-03-08T01:48:12;22.00;;;19.93;;
16393;SDS011;8306;51.128;4.476;2024-03-08T01:50:39;23.07;;;20.60;;
16393;SDS011;8306;51.128;4.476;2024-03-08T01:53:06;21.23;;;19.43;;
16393;SDS011;8306;51.128;4.476;2024-03-08T01:55:32;21.00;;;18.87;;
16393;SDS011;8306;51.128;4.476;2024-03-08T01:57:58;21.67;;;19.77;;
16393;SDS011;8306;51.128;4.476;2024-03-08T02:00:25;21.30;;;19.37;;
16393;SDS011;8306;51.128;4.476;2024-03-08T02:02:53;21.57;;;19.73;;
16393;SDS011;8306;51.128;4.476;2024-03-08T02:05:18;21.73;;;19.83;;
16393;SDS011;8306;51.128;4.476;2024-03-08T02:07:44;21.20;;;19.07;;
16393;SDS011;8306;51.128;4.476;2024-03-08T02:10:11;22.67;;;20.30;;
16393;SDS011;8306;51.128;4.476;2024-03-08T02:12:37;21.13;;;19.33;;
16393;SDS011;8306;51.128;4.476;2024-03-08T02:15:04;20.50;;;18.80;;
16393;SDS011;8306;51.128;4.476;2024-03-08T02:17:30;22.13;;;20.20;;
16393;SDS011;8306;51.128;4.476;2024-03-08T02:19:57;20.80;;;19.00;;
16393;SDS011;8306;51.128;4.476;2024-03-08T02:22:23;21.03;;;19.13;;
16393;SDS011;8306;51.128;4.476;2024-03-08T02:24:50;19.87;;;18.37;;
16393;SDS011;8306;51.128;4.476;2024-03-08T02:27:22;20.97;;;19.37;;
16393;SDS011;8306;51.128;4.476;2024-03-08T02:29:43;21.47;;;19.57;;
16393;SDS011;8306;51.128;4.476;2024-03-08T02:32:09;20.80;;;18.80;;
16393;SDS011;8306;51.128;4.476;2024-03-08T02:34:36;21.00;;;19.33;;
16393;SDS011;8306;51.128;4.476;2024-03-08T02:37:02;21.53;;;19.40;;
16393;SDS011;8306;51.128;4.476;2024-03-08T02:39:29;20.37;;;18.80;;
16393;SDS011;8306;51.128;4.476;2024-03-08T02:41:55;20.80;;;19.07;;
16393;SDS011;8306;51.128;4.476;2024-03-08T02:44:21;19.63;;;18.03;;
16393;SDS011;8306;51.128;4.476;2024-03-08T02:46:48;19.20;;;17.63;;
16393;SDS011;8306;51.128;4.476;2024-03-08T02:49:14;21.07;;;19.37;;
16393;SDS011;8306;51.128;4.476;2024-03-08T02:51:41;20.10;;;18.50;;
16393;SDS011;8306;51.128;4.476;2024-03-08T02:54:07;19.50;;;17.97;;
16393;SDS011;8306;51.128;4.476;2024-03-08T02:56:34;21.17;;;19.33;;
16393;SDS011;8306;51.128;4.476;2024-03-08T02:59:00;20.60;;;18.70;;
16393;SDS011;8306;51.128;4.476;2024-03-08T03:01:27;20.47;;;18.70;;
16393;SDS011;8306;51.128;4.476;2024-03-08T03:03:53;20.70;;;18.73;;
16393;SDS011;8306;51.128;4.476;2024-03-08T03:06:20;21.23;;;19.43;;
16393;SDS011;8306;51.128;4.476;2024-03-08T03:08:46;20.00;;;18.07;;
16393;SDS011;8306;51.128;4.476;2024-03-08T03:11:13;20.50;;;19.00;;
16393;SDS011;8306;51.128;4.476;2024-03-08T03:13:39;19.90;;;18.30;;
16393;SDS011;8306;51.128;4.476;2024-03-08T03:16:06;20.33;;;18.63;;
16393;SDS011;8306;51.128;4.476;2024-03-08T03:18:32;19.13;;;17.63;;
16393;SDS011;8306;51.128;4.476;2024-03-08T03:20:59;20.07;;;18.37;;
16393;SDS011;8306;51.128;4.476;2024-03-08T03:23:25;21.73;;;19.73;;
16393;SDS011;8306;51.128;4.476;2024-03-08T03:25:52;21.27;;;19.27;;
16393;SDS011;8306;51.128;4.476;2024-03-08T03:28:18;20.23;;;18.60;;
16393;SDS011;8306;51.128;4.476;2024-03-08T03:30:45;19.80;;;18.07;;
16393;SDS011;8306;51.128;4.476;2024-03-08T03:33:11;20.30;;;18.57;;
16393;SDS011;8306;51.128;4.476;2024-03-08T03:35:38;19.70;;;17.97;;
16393;SDS011;8306;51.128;4.476;2024-03-08T03:38:04;19.80;;;18.37;;
16393;SDS011;8306;51.128;4.476;2024-03-08T03:40:33;21.27;;;19.53;;
16393;SDS011;8306;51.128;4.476;2024-03-08T03:43:00;20.73;;;18.93;;
16393;SDS011;8306;51.128;4.476;2024-03-08T03:45:26;20.20;;;18.50;;
16393;SDS011;8306;51.128;4.476;2024-03-08T03:47:52;21.10;;;19.37;;
16393;SDS011;8306;51.128;4.476;2024-03-08T03:50:19;21.07;;;19.43;;
16393;SDS011;8306;51.128;4.476;2024-03-08T03:52:46;20.10;;;18.50;;
16393;SDS011;8306;51.128;4.476;2024-03-08T03:55:12;21.47;;;19.77;;
16393;SDS011;8306;51.128;4.476;2024-03-08T03:57:39;19.53;;;17.93;;
16393;SDS011;8306;51.128;4.476;2024-03-08T04:00:05;21.63;;;19.90;;
16393;SDS011;8306;51.128;4.476;2024-03-08T04:02:31;21.27;;;19.77;;
16393;SDS011;8306;51.128;4.476;2024-03-08T04:04:58;21.20;;;19.23;;
16393;SDS011;8306;51.128;4.476;2024-03-08T04:07:24;19.37;;;17.77;;
16393;SDS011;8306;51.128;4.476;2024-03-08T04:09:51;21.03;;;19.33;;
16393;SDS011;8306;51.128;4.476;2024-03-08T04:12:17;21.00;;;19.40;;
16393;SDS011;8306;51.128;4.476;2024-03-08T04:14:44;21.63;;;19.70;;
16393;SDS011;8306;51.128;4.476;2024-03-08T04:17:10;21.93;;;20.13;;
16393;SDS011;8306;51.128;4.476;2024-03-08T04:19:37;22.03;;;20.00;;
16393;SDS011;8306;51.128;4.476;2024-03-08T04:22:03;23.13;;;20.47;;
16393;SDS011;8306;51.128;4.476;2024-03-08T04:24:30;21.33;;;19.53;;
16393;SDS011;8306;51.128;4.476;2024-03-08T04:26:56;20.80;;;18.97;;
16393;SDS011;8306;51.128;4.476;2024-03-08T04:29:23;20.97;;;19.23;;
16393;SDS011;8306;51.128;4.476;2024-03-08T04:31:49;21.07;;;19.33;;
16393;SDS011;8306;51.128;4.476;2024-03-08T04:34:16;21.00;;;19.10;;
16393;SDS011;8306;51.128;4.476;2024-03-08T04:36:42;22.47;;;20.57;;
16393;SDS011;8306;51.128;4.476;2024-03-08T04:39:09;22.43;;;20.50;;
16393;SDS011;8306;51.128;4.476;2024-03-08T04:41:35;21.33;;;19.07;;
16393;SDS011;8306;51.128;4.476;2024-03-08T04:44:02;22.27;;;20.30;;
16393;SDS011;8306;51.128;4.476;2024-03-08T04:46:28;20.57;;;18.83;;
16393;SDS011;8306;51.128;4.476;2024-03-08T04:48:54;20.90;;;19.30;;
16393;SDS011;8306;51.128;4.476;2024-03-08T04:51:21;23.13;;;20.73;;
16393;SDS011;8306;51.128;4.476;2024-03-08T04:53:47;22.07;;;20.27;;
16393;SDS011;8306;51.128;4.476;2024-03-08T04:56:14;20.90;;;19.30;;
16393;SDS011;8306;51.128;4.476;2024-03-08T04:58:40;22.90;;;20.80;;
16393;SDS011;8306;51.128;4.476;2024-03-08T05:01:07;22.00;;;20.20;;
16393;SDS011;8306;51.128;4.476;2024-03-08T05:03:33;21.87;;;19.87;;
16393;SDS011;8306;51.128;4.476;2024-03-08T05:06:00;21.87;;;20.17;;
16393;SDS011;8306;51.128;4.476;2024-03-08T05:08:26;22.93;;;20.67;;
16393;SDS011;8306;51.128;4.476;2024-03-08T05:10:53;21.50;;;19.80;;
16393;SDS011;8306;51.128;4.476;2024-03-08T05:13:19;24.07;;;21.77;;
16393;SDS011;8306;51.128;4.476;2024-03-08T05:15:49;21.83;;;19.70;;
16393;SDS011;8306;51.128;4.476;2024-03-08T05:18:15;22.83;;;20.83;;
16393;SDS011;8306;51.128;4.476;2024-03-08T05:20:42;22.47;;;20.80;;
16393;SDS011;8306;51.128;4.476;2024-03-08T05:23:08;22.00;;;19.90;;
16393;SDS011;8306;51.128;4.476;2024-03-08T05:25:34;21.43;;;19.83;;
16393;SDS011;8306;51.128;4.476;2024-03-08T05:28:01;22.60;;;20.57;;
16393;SDS011;8306;51.128;4.476;2024-03-08T05:30:27;21.33;;;19.53;;
16393;SDS011;8306;51.128;4.476;2024-03-08T05:32:54;22.73;;;20.63;;
16393;SDS011;8306;51.128;4.476;2024-03-08T05:35:20;22.87;;;20.77;;
16393;SDS011;8306;51.128;4.476;2024-03-08T05:37:47;22.87;;;20.97;;
16393;SDS011;8306;51.128;4.476;2024-03-08T05:40:13;23.17;;;21.17;;
16393;SDS011;8306;51.128;4.476;2024-03-08T05:42:40;23.03;;;20.90;;
16393;SDS011;8306;51.128;4.476;2024-03-08T05:45:06;22.23;;;20.20;;
16393;SDS011;8306;51.128;4.476;2024-03-08T05:47:33;23.40;;;21.10;;
16393;SDS011;8306;51.128;4.476;2024-03-08T05:49:59;21.80;;;20.07;;
16393;SDS011;8306;51.128;4.476;2024-03-08T05:52:26;24.77;;;22.13;;
16393;SDS011;8306;51.128;4.476;2024-03-08T05:54:53;23.40;;;21.07;;
16393;SDS011;8306;51.128;4.476;2024-03-08T05:57:19;22.47;;;20.37;;
16393;SDS011;8306;51.128;4.476;2024-03-08T05:59:46;23.50;;;21.50;;
16393;SDS011;8306;51.128;4.476;2024-03-08T06:02:12;22.13;;;20.37;;
16393;SDS011;8306;51.128;4.476;2024-03-08T06:04:39;22.80;;;20.80;;
16393;SDS011;8306;51.128;4.476;2024-03-08T06:07:05;22.70;;;20.47;;
16393;SDS011;8306;51.128;4.476;2024-03-08T06:09:32;23.07;;;20.90;;
16393;SDS011;8306;51.128;4.476;2024-03-08T06:11:58;22.37;;;20.23;;
16393;SDS011;8306;51.128;4.476;2024-03-08T06:14:25;22.13;;;20.23;;
16393;SDS011;8306;51.128;4.476;2024-03-08T06:16:51;21.80;;;19.83;;
16393;SDS011;8306;51.128;4.476;2024-03-08T06:19:18;23.80;;;21.40;;
16393;SDS011;8306;51.128;4.476;2024-03-08T06:21:44;23.13;;;21.13;;
16393;SDS011;8306;51.128;4.476;2024-03-08T06:24:11;23.83;;;21.70;;
16393;SDS011;8306;51.128;4.476;2024-03-08T06:26:37;23.23;;;21.13;;
16393;SDS011;8306;51.128;4.476;2024-03-08T06:29:03;22.40;;;20.37;;
16393;SDS011;8306;51.128;4.476;2024-03-08T06:31:30;22.80;;;20.50;;
16393;SDS011;8306;51.128;4.476;2024-03-08T06:33:56;23.50;;;21.37;;
16393;SDS011;8306;51.128;4.476;2024-03-08T06:36:23;22.77;;;20.83;;
16393;SDS011;8306;51.128;4.476;2024-03-08T06:38:50;22.43;;;20.57;;
16393;SDS011;8306;51.128;4.476;2024-03-08T06:41:16;22.63;;;20.43;;
16393;SDS011;8306;51.128;4.476;2024-03-08T06:43:43;21.50;;;19.67;;
16393;SDS011;8306;51.128;4.476;2024-03-08T06:46:09;22.83;;;20.53;;
16393;SDS011;8306;51.128;4.476;2024-03-08T06:48:35;22.47;;;20.63;;
16393;SDS011;8306;51.128;4.476;2024-03-08T06:51:02;21.57;;;19.63;;
16393;SDS011;8306;51.128;4.476;2024-03-08T06:53:28;20.73;;;19.13;;
16393;SDS011;8306;51.128;4.476;2024-03-08T06:55:55;21.07;;;19.17;;
16393;SDS011;8306;51.128;4.476;2024-03-08T06:58:21;20.80;;;19.00;;
16393;SDS011;8306;51.128;4.476;2024-03-08T07:00:48;20.07;;;18.37;;
16393;SDS011;8306;51.128;4.476;2024-03-08T07:03:14;20.70;;;19.10;;
16393;SDS011;8306;51.128;4.476;2024-03-08T07:05:41;20.57;;;18.53;;
16393;SDS011;8306;51.128;4.476;2024-03-08T07:08:07;20.80;;;18.77;;
16393;SDS011;8306;51.128;4.476;2024-03-08T07:10:34;19.93;;;18.43;;
16393;SDS011;8306;51.128;4.476;2024-03-08T07:13:00;19.37;;;17.87;;
16393;SDS011;8306;51.128;4.476;2024-03-08T07:15:29;20.60;;;18.93;;
16393;SDS011;8306;51.128;4.476;2024-03-08T07:17:56;19.53;;;17.83;;
16393;SDS011;8306;51.128;4.476;2024-03-08T07:20:22;19.70;;;18.00;;
16393;SDS011;8306;51.128;4.476;2024-03-08T07:22:49;19.33;;;17.90;;
16393;SDS011;8306;51.128;4.476;2024-03-08T07:25:18;19.83;;;18.30;;
16393;SDS011;8306;51.128;4.476;2024-03-08T07:27:51;18.63;;;17.17;;
16393;SDS011;8306;51.128;4.476;2024-03-08T07:30:20;18.83;;;17.33;;
16393;SDS011;8306;51.128;4.476;2024-03-08T07:33:04;18.83;;;17.30;;
16393;SDS011;8306;51.128;4.476;2024-03-08T07:35:31;19.93;;;17.90;;
16393;SDS011;8306;51.128;4.476;2024-03-08T07:37:57;19.63;;;18.07;;
16393;SDS011;8306;51.128;4.476;2024-03-08T07:40:23;19.60;;;17.80;;
16393;SDS011;8306;51.128;4.476;2024-03-08T07:42:50;18.40;;;16.67;;
16393;SDS011;8306;51.128;4.476;2024-03-08T07:45:16;19.10;;;17.37;;
16393;SDS011;8306;51.128;4.476;2024-03-08T07:47:43;18.00;;;16.67;;
16393;SDS011;8306;51.128;4.476;2024-03-08T07:50:09;18.80;;;17.23;;
16393;SDS011;8306;51.128;4.476;2024-03-08T07:52:36;19.60;;;17.70;;
16393;SDS011;8306;51.128;4.476;2024-03-08T07:55:02;19.37;;;17.63;;
16393;SDS011;8306;51.128;4.476;2024-03-08T07:57:32;18.67;;;17.23;;
16393;SDS011;8306;51.128;4.476;2024-03-08T07:59:58;19.90;;;18.20;;
16393;SDS011;8306;51.128;4.476;2024-03-08T08:02:25;19.03;;;17.27;;
16393;SDS011;8306;51.128;4.476;2024-03-08T08:04:51;18.73;;;17.20;;
16393;SDS011;8306;51.128;4.476;2024-03-08T08:07:17;19.90;;;18.13;;
16393;SDS011;8306;51.128;4.476;2024-03-08T08:09:44;20.10;;;18.50;;
16393;SDS011;8306;51.128;4.476;2024-03-08T08:12:10;17.50;;;16.10;;
16393;SDS011;8306;51.128;4.476;2024-03-08T08:14:37;18.33;;;16.60;;
16393;SDS011;8306;51.128;4.476;2024-03-08T08:17:03;18.40;;;16.80;;
16393;SDS011;8306;51.128;4.476;2024-03-08T08:19:30;17.87;;;16.53;;
16393;SDS011;8306;51.128;4.476;2024-03-08T08:21:56;19.30;;;17.60;;
16393;SDS011;8306;51.128;4.476;2024-03-08T08:24:23;19.87;;;16.57;;
16393;SDS011;8306;51.128;4.476;2024-03-08T08:26:49;18.27;;;16.90;;
16393;SDS011;8306;51.128;4.476;2024-03-08T08:29:16;16.97;;;15.67;;
16393;SDS011;8306;51.128;4.476;2024-03-08T08:31:42;18.10;;;16.50;;
16393;SDS011;8306;51.128;4.476;2024-03-08T08:34:09;17.37;;;16.03;;
16393;SDS011;8306;51.128;4.476;2024-03-08T08:36:35;18.40;;;17.07;;
16393;SDS011;8306;51.128;4.476;2024-03-08T08:39:02;19.27;;;16.60;;
16393;SDS011;8306;51.128;4.476;2024-03-08T08:41:28;18.43;;;16.87;;
16393;SDS011;8306;51.128;4.476;2024-03-08T08:43:55;18.13;;;16.53;;
16393;SDS011;8306;51.128;4.476;2024-03-08T08:46:21;16.40;;;15.10;;
16393;SDS011;8306;51.128;4.476;2024-03-08T08:48:48;16.40;;;14.97;;
16393;SDS011;8306;51.128;4.476;2024-03-08T08:51:14;16.73;;;15.40;;
16393;SDS011;8306;51.128;4.476;2024-03-08T08:53:44;16.97;;;15.77;;
16393;SDS011;8306;51.128;4.476;2024-03-08T08:56:10;17.63;;;16.23;;
16393;SDS011;8306;51.128;4.476;2024-03-08T08:58:36;17.17;;;15.67;;
16393;SDS011;8306;51.128;4.476;2024-03-08T09:01:03;16.93;;;15.60;;
16393;SDS011;8306;51.128;4.476;2024-03-08T09:03:29;16.50;;;15.20;;
16393;SDS011;8306;51.128;4.476;2024-03-08T09:05:56;16.37;;;15.07;;
16393;SDS011;8306;51.128;4.476;2024-03-08T09:08:22;16.33;;;14.93;;
16393;SDS011;8306;51.128;4.476;2024-03-08T09:10:49;16.83;;;15.60;;
16393;SDS011;8306;51.128;4.476;2024-03-08T09:13:15;16.53;;;15.20;;
16393;SDS011;8306;51.128;4.476;2024-03-08T09:15:42;17.10;;;15.83;;
16393;SDS011;8306;51.128;4.476;2024-03-08T09:18:08;16.27;;;15.00;;
16393;SDS011;8306;51.128;4.476;2024-03-08T09:20:35;15.77;;;14.37;;
16393;SDS011;8306;51.128;4.476;2024-03-08T09:23:01;15.43;;;14.20;;
16393;SDS011;8306;51.128;4.476;2024-03-08T09:25:28;15.57;;;14.10;;
16393;SDS011;8306;51.128;4.476;2024-03-08T09:27:54;16.23;;;15.03;;
16393;SDS011;8306;51.128;4.476;2024-03-08T09:30:21;15.47;;;14.33;;
16393;SDS011;8306;51.128;4.476;2024-03-08T09:32:47;15.83;;;14.50;;
16393;SDS011;8306;51.128;4.476;2024-03-08T09:35:13;16.07;;;14.77;;
16393;SDS011;8306;51.128;4.476;2024-03-08T09:37:40;15.73;;;14.53;;
16393;SDS011;8306;51.128;4.476;2024-03-08T09:40:06;16.67;;;15.23;;
16393;SDS011;8306;51.128;4.476;2024-03-08T09:42:35;15.67;;;14.23;;
16393;SDS011;8306;51.128;4.476;2024-03-08T09:45:05;14.70;;;13.53;;
16393;SDS011;8306;51.128;4.476;2024-03-08T09:47:31;15.20;;;14.00;;
16393;SDS011;8306;51.128;4.476;2024-03-08T09:49:57;15.40;;;13.90;;
16393;SDS011;8306;51.128;4.476;2024-03-08T09:52:24;15.13;;;14.03;;
16393;SDS011;8306;51.128;4.476;2024-03-08T09:54:50;15.10;;;13.90;;
16393;SDS011;8306;51.128;4.476;2024-03-08T09:57:17;14.53;;;13.53;;
16393;SDS011;8306;51.128;4.476;2024-03-08T09:59:43;14.33;;;13.33;;
16393;SDS011;8306;51.128;4.476;2024-03-08T10:02:12;15.00;;;13.90;;
16393;SDS011;8306;51.128;4.476;2024-03-08T10:04:36;15.47;;;13.37;;
16393;SDS011;8306;51.128;4.476;2024-03-08T10:07:03;14.83;;;13.63;;
16393;SDS011;8306;51.128;4.476;2024-03-08T10:09:29;14.50;;;13.23;;
16393;SDS011;8306;51.128;4.476;2024-03-08T10:11:56;14.30;;;13.30;;
16393;SDS011;8306;51.128;4.476;2024-03-08T10:14:22;14.63;;;13.53;;
16393;SDS011;8306;51.128;4.476;2024-03-08T10:16:49;14.40;;;13.30;;
16393;SDS011;8306;51.128;4.476;2024-03-08T10:19:15;14.53;;;13.43;;
16393;SDS011;8306;51.128;4.476;2024-03-08T10:21:48;14.80;;;13.57;;
16393;SDS011;8306;51.128;4.476;2024-03-08T10:24:19;14.30;;;13.33;;
16393;SDS011;8306;51.128;4.476;2024-03-08T10:26:46;13.43;;;12.43;;
16393;SDS011;8306;51.128;4.476;2024-03-08T10:29:12;13.50;;;12.47;;
16393;SDS011;8306;51.128;4.476;2024-03-08T10:31:44;13.70;;;12.70;;
16393;SDS011;8306;51.128;4.476;2024-03-08T10:34:11;13.30;;;12.37;;
16393;SDS011;8306;51.128;4.476;2024-03-08T10:36:37;13.20;;;12.30;;
16393;SDS011;8306;51.128;4.476;2024-03-08T10:39:04;13.37;;;12.30;;
16393;SDS011;8306;51.128;4.476;2024-03-08T10:41:30;13.93;;;12.93;;
16393;SDS011;8306;51.128;4.476;2024-03-08T10:49:08;13.30;;;12.20;;
16393;SDS011;8306;51.128;4.476;2024-03-08T10:51:34;13.10;;;12.10;;
16393;SDS011;8306;51.128;4.476;2024-03-08T10:54:00;12.50;;;11.70;;
16393;SDS011;8306;51.128;4.476;2024-03-08T10:56:27;13.93;;;12.93;;
16393;SDS011;8306;51.128;4.476;2024-03-08T10:58:53;13.50;;;12.40;;
16393;SDS011;8306;51.128;4.476;2024-03-08T11:01:19;12.93;;;11.93;;
16393;SDS011;8306;51.128;4.476;2024-03-08T11:03:46;13.70;;;12.70;;
16393;SDS011;8306;51.128;4.476;2024-03-08T11:06:16;14.00;;;12.87;;
16393;SDS011;8306;51.128;4.476;2024-03-08T11:08:42;13.13;;;12.13;;
16393;SDS011;8306;51.128;4.476;2024-03-08T11:13:53;12.87;;;11.97;;
16393;SDS011;8306;51.128;4.476;2024-03-08T11:18:55;13.80;;;12.60;;
16393;SDS011;8306;51.128;4.476;2024-03-08T11:21:21;13.57;;;12.57;;
16393;SDS011;8306;51.128;4.476;2024-03-08T11:24:00;13.77;;;12.87;;
16393;SDS011;8306;51.128;4.476;2024-03-08T11:26:26;13.70;;;12.50;;
16393;SDS011;8306;51.128;4.476;2024-03-08T11:28:52;13.23;;;12.33;;
16393;SDS011;8306;51.128;4.476;2024-03-08T11:31:22;14.17;;;12.97;;
16393;SDS011;8306;51.128;4.476;2024-03-08T11:33:48;14.37;;;13.27;;
16393;SDS011;8306;51.128;4.476;2024-03-08T11:36:24;12.97;;;12.07;;
16393;SDS011;8306;51.128;4.476;2024-03-08T11:38:47;13.47;;;12.57;;
16393;SDS011;8306;51.128;4.476;2024-03-08T11:41:13;13.57;;;12.47;;
16393;SDS011;8306;51.128;4.476;2024-03-08T11:43:40;12.77;;;11.77;;
16393;SDS011;8306;51.128;4.476;2024-03-08T11:46:09;13.83;;;12.73;;
16393;SDS011;8306;51.128;4.476;2024-03-08T11:48:35;12.77;;;11.87;;
16393;SDS011;8306;51.128;4.476;2024-03-08T11:51:02;13.03;;;11.87;;
16393;SDS011;8306;51.128;4.476;2024-03-08T11:53:28;12.77;;;11.83;;
16393;SDS011;8306;51.128;4.476;2024-03-08T11:55:55;13.07;;;12.07;;
16393;SDS011;8306;51.128;4.476;2024-03-08T11:58:21;13.70;;;12.63;;
16393;SDS011;8306;51.128;4.476;2024-03-08T12:00:48;13.30;;;12.30;;
16393;SDS011;8306;51.128;4.476;2024-03-08T12:03:14;13.40;;;12.30;;
16393;SDS011;8306;51.128;4.476;2024-03-08T12:05:41;12.83;;;11.83;;
16393;SDS011;8306;51.128;4.476;2024-03-08T12:08:07;12.60;;;11.73;;
16393;SDS011;8306;51.128;4.476;2024-03-08T12:10:34;12.47;;;11.57;;
16393;SDS011;8306;51.128;4.476;2024-03-08T12:13:00;12.27;;;11.47;;
16393;SDS011;8306;51.128;4.476;2024-03-08T12:15:28;12.87;;;11.77;;
16393;SDS011;8306;51.128;4.476;2024-03-08T12:17:54;12.60;;;11.70;;
16393;SDS011;8306;51.128;4.476;2024-03-08T12:20:21;13.50;;;12.47;;
16393;SDS011;8306;51.128;4.476;2024-03-08T12:22:50;12.83;;;11.93;;
16393;SDS011;8306;51.128;4.476;2024-03-08T12:25:16;11.93;;;11.03;;
16393;SDS011;8306;51.128;4.476;2024-03-08T12:27:43;12.20;;;11.40;;
16393;SDS011;8306;51.128;4.476;2024-03-08T12:30:19;13.50;;;12.40;;
16393;SDS011;8306;51.128;4.476;2024-03-08T12:32:52;13.93;;;12.73;;
16393;SDS011;8306;51.128;4.476;2024-03-08T12:35:14;14.27;;;12.87;;
16393;SDS011;8306;51.128;4.476;2024-03-08T12:37:41;13.50;;;12.13;;
16393;SDS011;8306;51.128;4.476;2024-03-08T12:40:07;14.33;;;13.20;;
16393;SDS011;8306;51.128;4.476;2024-03-08T12:42:34;13.40;;;12.40;;
16393;SDS011;8306;51.128;4.476;2024-03-08T12:45:00;13.77;;;12.77;;
16393;SDS011;8306;51.128;4.476;2024-03-08T12:47:27;13.13;;;12.13;;
16393;SDS011;8306;51.128;4.476;2024-03-08T12:49:53;17.10;;;13.60;;
16393;SDS011;8306;51.128;4.476;2024-03-08T12:52:20;13.50;;;12.47;;
16393;SDS011;8306;51.128;4.476;2024-03-08T12:54:46;13.87;;;12.77;;
16393;SDS011;8306;51.128;4.476;2024-03-08T12:57:13;13.30;;;12.30;;
16393;SDS011;8306;51.128;4.476;2024-03-08T12:59:39;13.10;;;12.13;;
16393;SDS011;8306;51.128;4.476;2024-03-08T13:02:05;12.80;;;11.90;;
16393;SDS011;8306;51.128;4.476;2024-03-08T13:04:32;13.83;;;12.70;;
16393;SDS011;8306;51.128;4.476;2024-03-08T13:06:58;15.20;;;13.77;;
16393;SDS011;8306;51.128;4.476;2024-03-08T13:09:25;14.17;;;12.83;;
16393;SDS011;8306;51.128;4.476;2024-03-08T13:11:51;14.67;;;13.53;;
16393;SDS011;8306;51.128;4.476;2024-03-08T13:14:18;14.47;;;13.47;;
16393;SDS011;8306;51.128;4.476;2024-03-08T13:16:44;14.37;;;13.17;;
16393;SDS011;8306;51.128;4.476;2024-03-08T13:19:11;14.37;;;13.37;;
16393;SDS011;8306;51.128;4.476;2024-03-08T13:21:37;14.97;;;12.67;;
16393;SDS011;8306;51.128;4.476;2024-03-08T13:24:04;14.20;;;13.10;;
16393;SDS011;8306;51.128;4.476;2024-03-08T13:26:30;14.10;;;13.10;;
16393;SDS011;8306;51.128;4.476;2024-03-08T13:28:57;14.43;;;13.13;;
16393;SDS011;8306;51.128;4.476;2024-03-08T13:31:23;16.43;;;13.17;;
16393;SDS011;8306;51.128;4.476;2024-03-08T13:33:50;13.40;;;12.23;;
16393;SDS011;8306;51.128;4.476;2024-03-08T13:36:16;14.10;;;12.90;;
16393;SDS011;8306;51.128;4.476;2024-03-08T13:38:46;13.90;;;12.70;;
16393;SDS011;8306;51.128;4.476;2024-03-08T13:41:12;13.30;;;12.20;;
16393;SDS011;8306;51.128;4.476;2024-03-08T13:43:38;13.67;;;12.53;;
16393;SDS011;8306;51.128;4.476;2024-03-08T13:46:05;13.83;;;12.77;;
16393;SDS011;8306;51.128;4.476;2024-03-08T13:48:31;13.53;;;12.53;;
16393;SDS011;8306;51.128;4.476;2024-03-08T13:50:58;13.83;;;12.60;;
16393;SDS011;8306;51.128;4.476;2024-03-08T13:53:24;13.33;;;12.33;;
16393;SDS011;8306;51.128;4.476;2024-03-08T13:55:51;14.13;;;13.03;;
16393;SDS011;8306;51.128;4.476;2024-03-08T13:58:17;14.00;;;12.60;;
16393;SDS011;8306;51.128;4.476;2024-03-08T14:00:44;14.47;;;13.03;;
16393;SDS011;8306;51.128;4.476;2024-03-08T14:03:10;12.80;;;11.80;;
16393;SDS011;8306;51.128;4.476;2024-03-08T14:05:39;14.77;;;13.47;;
16393;SDS011;8306;51.128;4.476;2024-03-08T14:08:06;13.13;;;12.10;;
16393;SDS011;8306;51.128;4.476;2024-03-08T14:10:32;13.03;;;12.03;;
16393;SDS011;8306;51.128;4.476;2024-03-08T14:12:59;12.63;;;11.60;;
16393;SDS011;8306;51.128;4.476;2024-03-08T14:15:25;13.63;;;12.63;;
16393;SDS011;8306;51.128;4.476;2024-03-08T14:17:52;13.93;;;12.60;;
16393;SDS011;8306;51.128;4.476;2024-03-08T14:20:18;14.13;;;13.03;;
16393;SDS011;8306;51.128;4.476;2024-03-08T14:22:45;13.33;;;12.33;;
16393;SDS011;8306;51.128;4.476;2024-03-08T14:25:11;13.87;;;12.77;;
16393;SDS011;8306;51.128;4.476;2024-03-08T14:27:38;14.53;;;13.27;;
16393;SDS011;8306;51.128;4.476;2024-03-08T14:30:04;13.87;;;12.67;;
16393;SDS011;8306;51.128;4.476;2024-03-08T14:32:31;14.67;;;13.57;;
16393;SDS011;8306;51.128;4.476;2024-03-08T14:34:57;14.53;;;12.00;;
16393;SDS011;8306;51.128;4.476;2024-03-08T14:37:24;13.00;;;11.90;;
16393;SDS011;8306;51.128;4.476;2024-03-08T14:39:50;12.67;;;11.77;;